Fort Fraser, Canada
Current Conditions -  °F | °C
As of 4:49 PM on Tuesday 25 Nov 2014 (Local Time) from CYZY Reporting Station
Broken Clouds Broken Clouds  
Wind Chill: 18°   Ceiling: 1000
Heat Index: 18°   Visibility: 9mi
Dew Point: 18°   Wind: 3mph
Humidity: 100%   Direction: 100°E
Pressure: 30.15"   Gusts: NA
Location:  54.05°N, 124.53°W
Report Text: CYZY 260049Z AUTO 10003KT 9SM BKN010 M08/M08 A3015 RMK SLP260
Loading
Personal Weather Stations






























Interactive Weather Map New forecast layout! Learn more

10-Day Weather Forecast

Advertisements
Track Severe Weather on mobile